Time;durP1;ratioP1;P1;durP2;ratioP2;P2;SDS_P1;SDS_P2;PMS_P1;PMS_P2;Temp;Humidity;BMP_temperature;BMP_pressure;BME280_temperature;BME280_humidity;BME280_pressure;Samples;Min_cycle;Max_cycle;Signal;HPM_P1;HPM_P2
2023/10/21 00:00:08;;;;;;;5.28;1.98;;;12.60;99.90;;;;;;5089167;28;20103;-77
2023/10/21 00:02:34;;;;;;;4.10;2.22;;;12.60;99.90;;;;;;5072637;28;20009;-76
2023/10/21 00:04:59;;;;;;;4.95;2.97;;;12.60;99.90;;;;;;5087723;28;20036;-76
2023/10/21 00:07:27;;;;;;;7.18;2.10;;;12.60;99.90;;;;;;5090060;28;20020;-76
2023/10/21 00:09:53;;;;;;;3.00;2.33;;;12.60;99.90;;;;;;5073999;28;20024;-76
2023/10/21 00:12:22;;;;;;;3.67;1.80;;;12.60;99.90;;;;;;5088847;28;20037;-76
2023/10/21 00:14:48;;;;;;;4.10;2.20;;;12.60;99.90;;;;;;5072168;28;20032;-77
2023/10/21 00:17:13;;;;;;;4.80;1.67;;;12.60;99.90;;;;;;5072978;28;20100;-76
2023/10/21 00:19:41;;;;;;;5.55;2.75;;;12.60;99.90;;;;;;5072421;28;20087;-76
2023/10/21 00:22:10;;;;;;;5.50;2.13;;;12.70;99.90;;;;;;5089486;28;20039;-76
2023/10/21 00:24:36;;;;;;;6.10;2.45;;;12.50;99.90;;;;;;5073704;28;20028;-75
2023/10/21 00:27:06;;;;;;;6.87;2.00;;;12.60;99.90;;;;;;5087507;28;20021;-77
2023/10/21 00:29:34;;;;;;;4.28;2.60;;;12.60;99.90;;;;;;5075255;28;20016;-76
2023/10/21 00:32:07;;;;;;;4.53;2.22;;;12.60;99.90;;;;;;5071615;28;20028;-76
2023/10/21 00:34:38;;;;;;;6.63;3.28;;;12.60;99.90;;;;;;5087184;28;20040;-76
2023/10/21 00:37:05;;;;;;;3.70;2.88;;;12.60;99.90;;;;;;5075080;28;20031;-76
2023/10/21 00:39:34;;;;;;;6.85;2.80;;;12.60;99.90;;;;;;5073913;28;20028;-76
2023/10/21 00:42:03;;;;;;;4.53;2.80;;;12.60;99.90;;;;;;5088770;28;20008;-76
2023/10/21 00:44:29;;;;;;;5.78;2.47;;;12.60;99.90;;;;;;5089938;28;20040;-76
2023/10/21 00:46:55;;;;;;;5.95;2.67;;;12.70;99.90;;;;;;5070152;28;20023;-75
2023/10/21 00:49:21;;;;;;;8.25;2.85;;;12.50;99.90;;;;;;5074282;28;20023;-75
2023/10/21 00:51:51;;;;;;;8.30;3.00;;;12.60;99.90;;;;;;5070883;28;20028;-76
2023/10/21 00:54:17;;;;;;;5.35;2.78;;;12.70;99.90;;;;;;5076703;28;20054;-76
2023/10/21 00:56:43;;;;;;;9.07;2.70;;;12.50;99.90;;;;;;5087511;28;20037;-76
2023/10/21 00:59:13;;;;;;;11.23;3.13;;;12.70;99.90;;;;;;5087053;28;20114;-76
2023/10/21 01:01:43;;;;;;;8.38;2.90;;;12.70;99.90;;;;;;5071828;28;20031;-75
2023/10/21 01:04:12;;;;;;;10.45;3.38;;;12.70;99.90;;;;;;5071981;28;20058;-76
2023/10/21 01:06:47;;;;;;;6.43;2.88;;;12.70;99.90;;;;;;5074229;28;20099;-76
2023/10/21 01:09:15;;;;;;;10.13;3.15;;;12.70;99.90;;;;;;5072879;28;20032;-76
2023/10/21 01:11:41;;;;;;;9.38;3.08;;;12.60;99.90;;;;;;5070860;28;20019;-76
2023/10/21 01:14:09;;;;;;;9.52;3.35;;;12.60;99.90;;;;;;5070586;28;20028;-76
2023/10/21 01:16:35;;;;;;;10.15;3.80;;;12.70;99.90;;;;;;5072383;28;20013;-76
2023/10/21 01:19:10;;;;;;;12.23;3.50;;;12.70;99.90;;;;;;5071967;28;20085;-76
2023/10/21 01:21:36;;;;;;;8.77;4.38;;;12.70;99.90;;;;;;5073068;28;20029;-76
2023/10/21 01:24:01;;;;;;;7.15;3.33;;;12.60;99.90;;;;;;5076280;28;20024;-76
2023/10/21 01:26:35;;;;;;;8.38;3.70;;;12.70;99.90;;;;;;5070966;28;20104;-76
2023/10/21 01:29:05;;;;;;;9.15;4.00;;;12.70;99.90;;;;;;5069705;28;20028;-76
2023/10/21 01:31:34;;;;;;;17.33;4.88;;;12.80;99.90;;;;;;5072181;28;20035;-75
2023/10/21 01:34:02;;;;;;;12.05;5.18;;;12.80;99.90;;;;;;5071600;28;20013;-75
2023/10/21 01:36:28;;;;;;;11.07;4.40;;;12.70;99.90;;;;;;5071010;28;20020;-75
2023/10/21 01:38:54;;;;;;;7.88;4.25;;;12.70;99.90;;;;;;5071091;28;20035;-75
2023/10/21 01:41:20;;;;;;;14.73;5.15;;;12.70;99.90;;;;;;5086803;28;20027;-75
2023/10/21 01:43:45;;;;;;;13.32;4.90;;;12.60;99.90;;;;;;5072060;28;20033;-75
2023/10/21 01:46:11;;;;;;;21.02;5.85;;;12.80;99.90;;;;;;5071172;28;20035;-75
2023/10/21 01:48:39;;;;;;;6.75;4.00;;;12.70;99.90;;;;;;5070118;28;20055;-75
2023/10/21 01:51:08;;;;;;;11.93;4.07;;;12.80;99.90;;;;;;5071423;28;20084;-75
2023/10/21 01:53:34;;;;;;;11.43;4.00;;;12.80;99.90;;;;;;5072143;28;20025;-75
2023/10/21 01:56:05;;;;;;;5.50;4.05;;;12.70;99.90;;;;;;5070906;28;20048;-76
2023/10/21 01:58:31;;;;;;;7.65;4.47;;;12.80;99.90;;;;;;5070982;28;21088;-75
2023/10/21 02:00:59;;;;;;;7.47;3.50;;;12.70;99.90;;;;;;5070069;28;20020;-77
2023/10/21 02:03:28;;;;;;;7.20;3.95;;;12.70;99.90;;;;;;5069700;28;20037;-75
2023/10/21 02:05:53;;;;;;;17.83;5.65;;;12.70;99.90;;;;;;5069991;28;20025;-75
2023/10/21 02:08:26;;;;;;;11.63;4.30;;;12.70;99.90;;;;;;5070367;28;20454;-75
2023/10/21 02:10:55;;;;;;;11.40;4.43;;;12.60;99.90;;;;;;5073634;28;20106;-75
2023/10/21 02:13:23;;;;;;;10.73;5.07;;;12.70;99.90;;;;;;5087489;28;20058;-75
2023/10/21 02:15:50;;;;;;;12.40;4.33;;;12.70;99.90;;;;;;5072508;28;20036;-75
2023/10/21 02:18:34;;;;;;;24.17;6.05;;;12.70;99.90;;;;;;5068547;28;20017;-75
2023/10/21 02:21:16;;;;;;;14.17;5.00;;;12.70;99.90;;;;;;5087464;28;20013;-75
2023/10/21 02:23:54;;;;;;;8.45;4.32;;;12.60;99.90;;;;;;5068038;28;20036;-75
2023/10/21 02:26:22;;;;;;;9.70;4.37;;;12.70;99.90;;;;;;5073151;28;20012;-75
2023/10/21 02:28:48;;;;;;;11.38;4.15;;;12.70;99.90;;;;;;5088676;28;20060;-75
2023/10/21 02:31:18;;;;;;;10.10;4.68;;;12.70;99.90;;;;;;5068164;28;20130;-75
2023/10/21 02:33:46;;;;;;;7.93;4.77;;;12.70;99.90;;;;;;5070564;28;20025;-75
2023/10/21 02:36:15;;;;;;;10.97;4.87;;;12.60;99.90;;;;;;5087567;28;20025;-76
2023/10/21 02:38:43;;;;;;;12.13;5.17;;;12.70;99.90;;;;;;5086947;28;20069;-77
2023/10/21 02:41:11;;;;;;;21.70;5.57;;;12.60;99.90;;;;;;5068885;28;20025;-77
2023/10/21 02:43:37;;;;;;;17.45;5.80;;;12.70;99.90;;;;;;5072277;28;20036;-76
2023/10/21 02:46:16;;;;;;;13.05;5.20;;;12.50;99.90;;;;;;5073402;28;20024;-75
2023/10/21 02:48:43;;;;;;;11.40;4.75;;;12.70;99.90;;;;;;5090563;28;20052;-76
2023/10/21 02:51:13;;;;;;;1.73;1.15;;;12.70;99.90;;;;;;5088967;28;20029;-76
2023/10/21 02:53:42;;;;;;;10.80;4.13;;;12.70;99.90;;;;;;5078248;28;20321;-75
2023/10/21 02:56:13;;;;;;;7.90;4.43;;;12.70;99.90;;;;;;5072807;28;20020;-76
2023/10/21 02:58:41;;;;;;;10.57;4.18;;;12.70;99.90;;;;;;5071303;28;20032;-75
2023/10/21 03:01:17;;;;;;;13.70;4.55;;;12.60;99.90;;;;;;5075417;28;20076;-76
2023/10/21 03:03:48;;;;;;;9.80;4.00;;;12.70;99.90;;;;;;5090057;28;20059;-76
2023/10/21 03:06:16;;;;;;;7.75;3.58;;;12.80;99.90;;;;;;5076217;28;20024;-75
2023/10/21 03:08:47;;;;;;;8.15;3.17;;;12.70;99.90;;;;;;5077027;28;20037;-76
2023/10/21 03:11:15;;;;;;;4.68;2.67;;;12.80;99.90;;;;;;5075528;28;20055;-75
2023/10/21 03:13:44;;;;;;;6.60;2.67;;;12.60;99.90;;;;;;5071203;28;20013;-75
2023/10/21 03:16:15;;;;;;;5.22;2.20;;;12.80;99.90;;;;;;5090517;28;20025;-75
2023/10/21 03:18:51;;;;;;;7.43;2.63;;;12.80;99.90;;;;;;5089515;28;20028;-77
2023/10/21 03:21:17;;;;;;;11.02;2.65;;;12.80;99.90;;;;;;5073832;28;20020;-76
2023/10/21 03:23:46;;;;;;;3.65;1.98;;;12.90;99.90;;;;;;5073001;28;20133;-78
2023/10/21 03:26:11;;;;;;;8.88;2.50;;;12.90;99.90;;;;;;5089278;28;20030;-75
2023/10/21 03:28:43;;;;;;;4.70;2.30;;;12.90;99.90;;;;;;5073551;28;20017;-75
2023/10/21 03:31:12;;;;;;;5.25;2.00;;;12.90;99.90;;;;;;5089776;28;20041;-76
2023/10/21 03:33:38;;;;;;;3.65;1.95;;;12.80;99.90;;;;;;5087557;28;20041;-76
2023/10/21 03:36:05;;;;;;;4.53;2.15;;;12.90;99.90;;;;;;5073517;28;20033;-76
2023/10/21 03:38:33;;;;;;;1.73;1.50;;;13.00;99.90;;;;;;5069383;28;20062;-76
2023/10/21 03:41:06;;;;;;;5.55;2.50;;;12.70;99.90;;;;;;5075314;28;20123;-77
2023/10/21 03:43:35;;;;;;;4.47;2.60;;;12.90;99.90;;;;;;5090381;28;20040;-76
2023/10/21 03:46:17;;;;;;;5.85;1.95;;;12.90;99.90;;;;;;5088622;28;20019;-76
2023/10/21 03:48:46;;;;;;;20.00;3.72;;;12.90;99.90;;;;;;5071743;28;20012;-76
2023/10/21 03:51:23;;;;;;;3.15;1.90;;;12.90;99.90;;;;;;5071667;28;20425;-76
2023/10/21 03:53:52;;;;;;;5.82;1.88;;;13.00;99.90;;;;;;5071815;28;20009;-76
2023/10/21 03:56:20;;;;;;;42.90;5.32;;;13.00;99.90;;;;;;5071598;28;20032;-77
2023/10/21 03:58:46;;;;;;;5.93;1.92;;;12.90;99.90;;;;;;5087921;28;20016;-75
2023/10/21 04:01:11;;;;;;;6.25;2.10;;;13.00;99.90;;;;;;5070712;28;20047;-75
2023/10/21 04:03:37;;;;;;;6.43;2.65;;;13.00;99.90;;;;;;5088304;28;20092;-75
2023/10/21 04:06:03;;;;;;;5.68;2.50;;;12.90;99.90;;;;;;5088428;28;20486;-75
2023/10/21 04:08:31;;;;;;;8.02;3.17;;;12.90;99.90;;;;;;5072040;28;20025;-77
2023/10/21 04:10:59;;;;;;;5.25;2.88;;;13.00;99.90;;;;;;5074144;28;20027;-77
2023/10/21 04:13:27;;;;;;;6.43;2.40;;;12.90;99.90;;;;;;5087808;28;20052;-75
2023/10/21 04:15:55;;;;;;;9.88;2.60;;;12.90;99.90;;;;;;5073921;28;20045;-75
2023/10/21 04:18:21;;;;;;;8.23;2.25;;;12.90;99.90;;;;;;5087173;28;20032;-75
2023/10/21 04:20:49;;;;;;;5.07;2.30;;;13.10;99.90;;;;;;5073761;28;20032;-76
2023/10/21 04:23:15;;;;;;;5.30;2.05;;;13.10;99.90;;;;;;5068078;28;20040;-76
2023/10/21 04:25:40;;;;;;;3.78;2.80;;;12.90;99.90;;;;;;5088585;28;20058;-76
2023/10/21 04:28:10;;;;;;;4.05;2.60;;;13.00;99.90;;;;;;5073499;28;20233;-76
2023/10/21 04:30:38;;;;;;;5.97;2.67;;;12.90;99.90;;;;;;5071865;28;20033;-76
2023/10/21 04:33:11;;;;;;;7.97;2.50;;;13.00;99.90;;;;;;5071797;28;20028;-76
2023/10/21 04:35:37;;;;;;;3.63;2.20;;;13.00;99.90;;;;;;5073799;28;20013;-76
2023/10/21 04:38:33;;;;;;;4.95;2.30;;;12.90;99.90;;;;;;5086661;28;21524;-75
2023/10/21 04:40:59;;;;;;;5.95;2.47;;;13.00;99.90;;;;;;5088770;28;20017;-78
2023/10/21 04:43:27;;;;;;;5.07;2.90;;;12.90;99.90;;;;;;5072877;28;20036;-76
2023/10/21 04:46:01;;;;;;;4.75;2.70;;;12.90;99.90;;;;;;5072106;28;20035;-77
2023/10/21 04:48:29;;;;;;;8.77;3.40;;;12.80;99.90;;;;;;5071841;28;20027;-76
2023/10/21 04:51:02;;;;;;;9.65;5.13;;;12.80;99.90;;;;;;5086395;28;20013;-76
2023/10/21 04:53:35;;;;;;;8.48;4.72;;;12.80;99.90;;;;;;5086823;28;20052;-78
2023/10/21 04:56:06;;;;;;;16.05;5.60;;;12.60;99.90;;;;;;5088110;28;20032;-77
2023/10/21 04:58:32;;;;;;;10.70;5.63;;;12.60;99.90;;;;;;5073304;28;20054;-76
2023/10/21 05:01:10;;;;;;;;;;;;;;;;;;;;;
2023/10/21 05:03:38;;;;;;;11.67;6.30;;;12.60;99.90;;;;;;5090354;28;20056;-77
2023/10/21 05:06:04;;;;;;;13.57;6.13;;;12.50;99.90;;;;;;5070493;28;20032;-77
2023/10/21 05:08:37;;;;;;;17.35;5.68;;;12.40;99.90;;;;;;5088611;28;20025;-77
2023/10/21 05:11:08;;;;;;;8.87;4.50;;;12.50;99.90;;;;;;5071641;28;20025;-76
2023/10/21 05:13:36;;;;;;;10.27;4.50;;;12.40;99.90;;;;;;5087364;28;20020;-77
2023/10/21 05:16:02;;;;;;;12.93;4.87;;;12.40;99.90;;;;;;5075559;28;20021;-77
2023/10/21 05:18:30;;;;;;;9.15;4.38;;;12.40;99.90;;;;;;5087824;28;20029;-77
2023/10/21 05:20:58;;;;;;;9.20;3.80;;;12.40;99.90;;;;;;5071272;28;20037;-76
2023/10/21 05:23:28;;;;;;;7.13;2.97;;;12.40;99.90;;;;;;5072360;28;20025;-77
2023/10/21 05:25:58;;;;;;;9.32;3.72;;;12.50;99.90;;;;;;5071369;28;20020;-78
2023/10/21 05:28:24;;;;;;;10.57;4.32;;;12.40;99.90;;;;;;5076787;28;20031;-78
2023/10/21 05:30:50;;;;;;;6.82;3.95;;;12.40;99.90;;;;;;5070916;28;20135;-76
2023/10/21 05:33:18;;;;;;;14.50;5.00;;;12.30;99.90;;;;;;5086458;28;20092;-77
2023/10/21 05:35:44;;;;;;;12.83;5.03;;;12.30;99.90;;;;;;5085779;28;20044;-77
2023/10/21 05:38:15;;;;;;;12.13;6.23;;;12.50;99.90;;;;;;5068919;28;20029;-77
2023/10/21 05:40:54;;;;;;;11.75;5.63;;;12.40;99.90;;;;;;5066011;28;20037;-77
2023/10/21 05:43:20;;;;;;;13.83;6.20;;;12.40;99.90;;;;;;5071194;28;20075;-78
2023/10/21 05:45:49;;;;;;;10.47;5.43;;;12.40;99.90;;;;;;5070868;28;20096;-78
2023/10/21 05:48:14;;;;;;;14.95;5.82;;;12.50;99.90;;;;;;5071487;28;20028;-78
2023/10/21 05:50:55;;;;;;;11.10;5.10;;;12.30;99.90;;;;;;5068997;28;20017;-77
2023/10/21 05:53:21;;;;;;;12.07;4.68;;;12.50;99.90;;;;;;5088274;28;20017;-77
2023/10/21 05:55:54;;;;;;;6.13;3.80;;;12.50;99.90;;;;;;5073477;28;20074;-78
2023/10/21 05:58:20;;;;;;;7.63;3.83;;;12.50;99.90;;;;;;5087647;28;20043;-78
2023/10/21 06:00:48;;;;;;;6.25;3.47;;;12.50;99.90;;;;;;5072216;28;20025;-78
2023/10/21 06:03:16;;;;;;;6.32;3.58;;;12.60;99.90;;;;;;5086175;28;20033;-77
2023/10/21 06:05:44;;;;;;;8.07;3.25;;;12.50;99.90;;;;;;5071900;28;20008;-77
2023/10/21 06:08:10;;;;;;;6.40;2.60;;;12.60;99.90;;;;;;5072996;28;20033;-78
2023/10/21 06:10:37;;;;;;;6.32;2.88;;;12.60;99.90;;;;;;5086286;28;20017;-78
2023/10/21 06:13:06;;;;;;;6.23;2.80;;;12.70;99.90;;;;;;5088400;28;20013;-78
2023/10/21 06:15:32;;;;;;;5.10;3.07;;;12.70;99.90;;;;;;5072171;28;20121;-78
2023/10/21 06:18:10;;;;;;;7.33;2.60;;;12.70;99.90;;;;;;5071342;28;20013;-77
2023/10/21 06:20:51;;;;;;;3.60;2.43;;;12.70;99.90;;;;;;5087063;28;20021;-78
2023/10/21 06:23:17;;;;;;;3.45;2.47;;;12.80;99.90;;;;;;5087239;28;20072;-77
2023/10/21 06:25:46;;;;;;;5.07;2.22;;;12.70;99.90;;;;;;5071917;28;20024;-78
2023/10/21 06:28:23;;;;;;;6.55;1.83;;;12.80;99.90;;;;;;5070321;28;20025;-78
2023/10/21 06:30:48;;;;;;;6.45;2.03;;;12.80;99.90;;;;;;5070230;28;20100;-77
2023/10/21 06:33:19;;;;;;;2.90;1.77;;;12.80;99.90;;;;;;5067585;28;20047;-77
2023/10/21 06:35:52;;;;;;;10.07;1.67;;;12.80;99.90;;;;;;5089241;28;20024;-78
2023/10/21 06:38:18;;;;;;;3.03;1.70;;;12.80;99.90;;;;;;5073432;28;20037;-77
2023/10/21 06:40:51;;;;;;;2.65;1.70;;;12.90;99.90;;;;;;5220896;22;20109;-77
2023/10/21 06:43:24;;;;;;;5.25;1.45;;;12.90;99.90;;;;;;5032764;28;20041;-79
2023/10/21 06:46:00;;;;;;;3.75;1.30;;;13.00;99.90;;;;;;5031117;28;20018;-77
2023/10/21 06:48:29;;;;;;;5.15;1.20;;;13.00;99.90;;;;;;5033233;28;20045;-77
2023/10/21 06:50:58;;;;;;;2.85;1.13;;;13.00;99.90;;;;;;5033420;28;20014;-77
2023/10/21 06:53:26;;;;;;;3.47;1.10;;;13.10;99.90;;;;;;5030600;28;20053;-77
2023/10/21 06:55:51;;;;;;;2.60;1.40;;;13.10;99.90;;;;;;5031052;28;20032;-76
2023/10/21 06:58:28;;;;;;;4.25;1.48;;;13.00;99.90;;;;;;5032527;28;20014;-77
2023/10/21 07:00:55;;;;;;;4.95;1.35;;;13.00;99.90;;;;;;5031604;28;20010;-77
2023/10/21 07:03:21;;;;;;;5.35;1.40;;;13.20;99.90;;;;;;5030379;28;20042;-77
2023/10/21 07:05:47;;;;;;;3.13;1.20;;;13.30;99.90;;;;;;5030348;28;20033;-77
2023/10/21 07:08:13;;;;;;;1.63;0.95;;;13.20;99.90;;;;;;5031636;28;20070;-78
2023/10/21 07:10:43;;;;;;;2.90;1.38;;;13.30;99.90;;;;;;5028754;28;20022;-78
2023/10/21 07:13:17;;;;;;;2.97;1.10;;;13.30;99.90;;;;;;5027679;28;20125;-78
2023/10/21 07:15:48;;;;;;;1.55;0.88;;;13.30;99.90;;;;;;5030713;28;20018;-78
2023/10/21 07:18:16;;;;;;;1.88;0.80;;;13.40;99.90;;;;;;5030576;28;20056;-77
2023/10/21 07:20:47;;;;;;;2.83;0.55;;;13.40;99.90;;;;;;5030223;28;20021;-79
2023/10/21 07:23:14;;;;;;;2.15;0.90;;;13.40;99.90;;;;;;5030917;28;20100;-78
2023/10/21 07:25:57;;;;;;;1.77;0.50;;;13.30;99.90;;;;;;5031673;28;20117;-79
2023/10/21 07:28:26;;;;;;;2.88;0.60;;;13.30;99.90;;;;;;5030428;28;20026;-78
2023/10/21 07:30:55;;;;;;;2.63;0.30;;;13.20;99.90;;;;;;5029485;28;20033;-80
2023/10/21 07:33:21;;;;;;;1.45;0.20;;;13.20;99.90;;;;;;5026822;28;20029;-80
2023/10/21 07:35:55;;;;;;;0.52;0.20;;;13.20;99.90;;;;;;5029197;28;20045;-79
2023/10/21 07:38:24;;;;;;;1.05;0.40;;;13.10;99.90;;;;;;5028173;28;20041;-77
2023/10/21 07:40:50;;;;;;;0.77;0.20;;;13.10;99.90;;;;;;5026711;28;20025;-78
2023/10/21 07:43:18;;;;;;;1.17;0.30;;;13.10;99.90;;;;;;5030833;28;20025;-78
2023/10/21 07:45:46;;;;;;;2.63;0.65;;;13.20;99.90;;;;;;5032420;28;20018;-80
2023/10/21 07:48:14;;;;;;;0.90;0.45;;;13.00;99.90;;;;;;5031568;28;20044;-79
2023/10/21 07:50:41;;;;;;;0.65;0.20;;;13.10;99.90;;;;;;5049755;28;20010;-80
2023/10/21 07:53:07;;;;;;;0.32;0.20;;;13.10;99.90;;;;;;5032857;28;20030;-79
2023/10/21 07:55:35;;;;;;;0.77;0.20;;;13.10;99.90;;;;;;5030676;28;20089;-79
2023/10/21 07:58:01;;;;;;;2.38;0.30;;;13.10;99.90;;;;;;5028659;28;20033;-79
2023/10/21 08:00:28;;;;;;;0.70;0.28;;;12.90;99.90;;;;;;5029277;28;20038;-81
2023/10/21 08:02:54;;;;;;;0.95;0.30;;;12.90;99.90;;;;;;5030279;28;20078;-80
2023/10/21 08:05:21;;;;;;;0.70;0.20;;;13.00;99.90;;;;;;5029581;28;20022;-77
2023/10/21 08:07:54;;;;;;;2.37;0.20;;;12.90;99.90;;;;;;5028562;28;20026;-79
2023/10/21 08:10:22;;;;;;;0.77;0.20;;;13.00;99.90;;;;;;5030957;28;20014;-77
2023/10/21 08:12:47;;;;;;;0.40;0.20;;;13.00;99.90;;;;;;5029249;28;20064;-77
2023/10/21 08:15:29;;;;;;;0.68;0.30;;;12.90;99.90;;;;;;5030259;28;20033;-76
2023/10/21 08:17:56;;;;;;;0.63;0.20;;;13.00;99.90;;;;;;5031780;28;20030;-76
2023/10/21 08:20:23;;;;;;;1.88;0.20;;;12.90;99.90;;;;;;5030378;28;20037;-76
2023/10/21 08:22:50;;;;;;;0.70;0.28;;;13.00;99.90;;;;;;5030234;28;20041;-76
2023/10/21 08:25:16;;;;;;;0.60;0.10;;;13.00;99.90;;;;;;5031647;28;20034;-77
2023/10/21 08:27:45;;;;;;;0.50;0.20;;;13.10;99.90;;;;;;5030962;28;20208;-76
2023/10/21 08:30:10;;;;;;;1.55;0.55;;;13.10;99.90;;;;;;5029789;28;20036;-76
2023/10/21 08:32:41;;;;;;;0.22;0.22;;;13.00;99.90;;;;;;5029879;28;20018;-76
2023/10/21 08:35:09;;;;;;;1.58;0.25;;;13.20;99.90;;;;;;5030322;28;20046;-76
2023/10/21 08:37:39;;;;;;;1.38;0.20;;;13.30;99.90;;;;;;5027767;28;20101;-77
2023/10/21 08:40:11;;;;;;;0.57;0.13;;;13.40;99.90;;;;;;5028190;28;20061;-78
2023/10/21 08:42:37;;;;;;;0.52;0.20;;;13.60;99.90;;;;;;5028508;28;20049;-78
2023/10/21 08:45:10;;;;;;;0.40;0.20;;;13.60;99.90;;;;;;5028506;28;20052;-78
2023/10/21 08:47:40;;;;;;;0.77;0.20;;;13.80;99.90;;;;;;5026115;28;20029;-77
2023/10/21 08:50:12;;;;;;;1.42;0.60;;;13.80;99.90;;;;;;5028031;28;21542;-77
2023/10/21 08:52:45;;;;;;;0.20;0.20;;;13.80;99.90;;;;;;5027981;28;20344;-77
2023/10/21 08:55:10;;;;;;;;;;;13.90;99.90;;;;;;5029753;28;20049;-78
2023/10/21 08:57:49;;;;;;;3.33;1.15;;;14.00;99.90;;;;;;5041174;28;19909;-77
2023/10/21 09:00:21;;;;;;;2.42;0.93;;;14.00;99.90;;;;;;5027523;28;20037;-76
2023/10/21 09:02:49;;;;;;;5.00;2.05;;;14.00;99.90;;;;;;5027068;28;20063;-76
2023/10/21 09:05:18;;;;;;;1.92;1.08;;;13.90;99.90;;;;;;5028227;28;20027;-77
2023/10/21 09:07:52;;;;;;;2.95;0.75;;;14.00;99.90;;;;;;5025158;28;20022;-76
2023/10/21 09:10:21;;;;;;;2.25;0.65;;;13.90;99.90;;;;;;5028240;28;20045;-77
2023/10/21 09:12:58;;;;;;;4.63;0.15;;;13.90;99.90;;;;;;5025120;28;20042;-76
2023/10/21 09:15:35;;;;;;;1.15;0.20;;;13.80;99.90;;;;;;5025823;28;20096;-76
2023/10/21 09:18:11;;;;;;;1.88;0.40;;;13.90;99.90;;;;;;5027129;28;20048;-77
2023/10/21 09:20:46;;;;;;;2.17;0.30;;;13.90;99.90;;;;;;5025707;28;20030;-77
2023/10/21 09:23:33;;;;;;;1.33;0.20;;;13.80;99.90;;;;;;5028672;28;20045;-78
2023/10/21 09:25:59;;;;;;;2.03;0.40;;;13.90;99.90;;;;;;5027490;28;20046;-77
2023/10/21 09:28:25;;;;;;;6.35;0.40;;;14.00;99.90;;;;;;5028063;28;20024;-76
2023/10/21 09:31:04;;;;;;;2.83;0.43;;;14.00;99.90;;;;;;5028776;28;20022;-77
2023/10/21 09:33:30;;;;;;;1.27;0.30;;;14.00;99.90;;;;;;5028606;28;20018;-75
2023/10/21 09:36:01;;;;;;;2.22;0.30;;;14.10;99.90;;;;;;5027520;28;20196;-75
2023/10/21 09:38:27;;;;;;;3.40;0.63;;;14.10;99.90;;;;;;5029501;28;20026;-75
2023/10/21 09:40:53;;;;;;;2.22;0.70;;;14.10;99.90;;;;;;5028465;28;20014;-76
2023/10/21 09:43:25;;;;;;;3.50;0.65;;;14.00;99.90;;;;;;5028640;28;20123;-75
2023/10/21 09:45:55;;;;;;;2.63;0.70;;;14.10;99.90;;;;;;5029785;28;20061;-76
2023/10/21 09:48:22;;;;;;;1.48;0.22;;;14.20;99.90;;;;;;5030398;28;20042;-75
2023/10/21 09:50:53;;;;;;;1.63;0.20;;;14.20;99.90;;;;;;5029572;28;20061;-75
2023/10/21 09:53:25;;;;;;;4.30;0.55;;;14.10;99.90;;;;;;5028692;28;20028;-76
2023/10/21 09:55:55;;;;;;;2.78;0.88;;;14.30;99.90;;;;;;5044058;28;20030;-75
2023/10/21 09:58:22;;;;;;;3.22;0.63;;;14.40;99.90;;;;;;5028066;28;20089;-76
2023/10/21 10:00:47;;;;;;;2.28;0.50;;;14.50;99.90;;;;;;5024154;28;20045;-74
2023/10/21 10:03:14;;;;;;;1.35;0.30;;;14.80;99.90;;;;;;5027903;28;20041;-75
2023/10/21 10:05:41;;;;;;;3.17;0.47;;;14.90;99.90;;;;;;5029055;28;20017;-75
2023/10/21 10:08:08;;;;;;;2.22;0.30;;;15.00;99.90;;;;;;5026996;28;20010;-75
2023/10/21 10:10:38;;;;;;;2.00;0.40;;;15.00;99.90;;;;;;5025899;28;20027;-75
2023/10/21 10:13:06;;;;;;;4.30;0.60;;;15.00;99.90;;;;;;5028529;28;20030;-76
2023/10/21 10:15:37;;;;;;;3.50;0.30;;;15.00;99.90;;;;;;5028316;28;20081;-75
2023/10/21 10:18:07;;;;;;;1.58;0.40;;;15.00;99.90;;;;;;5029614;28;20037;-75
2023/10/21 10:20:33;;;;;;;2.03;0.65;;;15.00;99.90;;;;;;5026165;28;20077;-74
2023/10/21 10:23:04;;;;;;;2.47;0.40;;;14.90;99.90;;;;;;5027737;28;20033;-74
2023/10/21 10:25:57;;;;;;;1.33;0.25;;;15.00;99.90;;;;;;5023999;28;20081;-75
2023/10/21 10:28:27;;;;;;;2.72;0.47;;;14.70;99.90;;;;;;5028848;28;20057;-75
2023/10/21 10:30:54;;;;;;;1.45;0.30;;;14.80;99.90;;;;;;5028730;28;20037;-75
2023/10/21 10:33:28;;;;;;;1.73;0.20;;;14.90;99.90;;;;;;5027971;28;20155;-76
2023/10/21 10:35:58;;;;;;;3.22;0.45;;;14.80;99.90;;;;;;5029656;28;20089;-76
2023/10/21 10:38:32;;;;;;;2.13;0.30;;;14.90;99.90;;;;;;5027559;28;20018;-75
2023/10/21 10:41:07;;;;;;;3.40;0.25;;;14.80;99.90;;;;;;5030483;28;20030;-76
2023/10/21 10:43:42;;;;;;;3.70;0.50;;;15.00;99.90;;;;;;5028589;28;20038;-75
2023/10/21 10:46:08;;;;;;;2.30;0.28;;;15.10;99.90;;;;;;5029426;28;20028;-75
2023/10/21 10:48:34;;;;;;;0.30;0.10;;;15.10;99.90;;;;;;5028801;28;20022;-76
2023/10/21 10:51:06;;;;;;;3.17;0.50;;;15.10;99.90;;;;;;5028290;28;20026;-74
2023/10/21 10:53:34;;;;;;;1.35;0.28;;;15.00;99.90;;;;;;5027907;28;20038;-76
2023/10/21 10:56:02;;;;;;;2.28;0.43;;;15.00;99.90;;;;;;5028462;28;20041;-75
2023/10/21 10:58:30;;;;;;;0.63;0.20;;;14.80;99.90;;;;;;5042025;28;20022;-74
2023/10/21 11:00:57;;;;;;;0.95;0.20;;;15.00;99.90;;;;;;5042583;28;20018;-75
2023/10/21 11:03:28;;;;;;;1.73;0.40;;;14.90;99.90;;;;;;5027978;28;20034;-75
2023/10/21 11:05:55;;;;;;;1.02;0.25;;;14.80;99.90;;;;;;5027676;28;20041;-75
2023/10/21 11:08:22;;;;;;;5.22;0.80;;;15.00;99.90;;;;;;5027501;28;20026;-75
2023/10/21 11:10:53;;;;;;;0.95;0.28;;;14.90;99.90;;;;;;5030311;28;20036;-76
2023/10/21 11:13:22;;;;;;;6.07;0.43;;;14.80;99.90;;;;;;5024622;28;20085;-75
2023/10/21 11:15:51;;;;;;;3.47;0.57;;;14.90;99.90;;;;;;5029321;28;20033;-75
2023/10/21 11:18:18;;;;;;;1.95;0.40;;;14.80;99.90;;;;;;5027566;28;20038;-75
2023/10/21 11:20:52;;;;;;;3.22;0.43;;;14.90;99.90;;;;;;5025863;28;20050;-77
2023/10/21 11:23:23;;;;;;;1.88;0.55;;;14.90;99.90;;;;;;5027218;28;20112;-76
2023/10/21 11:26:00;;;;;;;3.20;0.45;;;15.00;99.90;;;;;;5046995;28;20034;-77
2023/10/21 11:28:26;;;;;;;1.80;0.40;;;15.00;99.90;;;;;;5032091;28;20190;-76
2023/10/21 11:30:52;;;;;;;2.33;0.40;;;15.00;99.90;;;;;;5030873;28;20018;-76
2023/10/21 11:33:18;;;;;;;3.10;0.80;;;15.10;99.90;;;;;;5030108;28;20030;-76
2023/10/21 11:35:57;;;;;;;7.13;1.27;;;15.10;99.90;;;;;;5046234;28;20036;-76
2023/10/21 11:38:23;;;;;;;3.40;0.82;;;15.20;99.90;;;;;;5046933;28;20014;-75
2023/10/21 11:40:49;;;;;;;4.63;0.40;;;15.30;99.90;;;;;;5030601;28;20072;-76
2023/10/21 11:43:18;;;;;;;8.23;1.48;;;15.30;99.90;;;;;;5029404;28;21200;-75
2023/10/21 11:45:46;;;;;;;5.53;0.93;;;15.40;99.90;;;;;;5031326;28;20081;-75
2023/10/21 11:48:16;;;;;;;6.90;0.90;;;15.40;99.90;;;;;;5047008;28;20030;-76
2023/10/21 11:50:48;;;;;;;3.78;1.02;;;15.40;99.90;;;;;;5030269;28;20040;-77
2023/10/21 11:53:16;;;;;;;5.05;1.15;;;15.50;99.90;;;;;;5031238;28;20026;-76
2023/10/21 12:04:24;;;;;;;2.30;0.93;;;15.60;99.90;;;;;;5029954;28;20072;-77
2023/10/21 12:10:10;;;;;;;4.22;0.90;;;15.70;99.90;;;;;;5030588;28;20054;-75
2023/10/21 12:12:18;;;;;;;3.78;0.40;;;15.80;99.90;;;;;;5028959;28;20022;-76
2023/10/21 12:41:11;;;;;;;2.75;0.80;;;15.80;99.90;;;;;;5030184;28;20037;-77
2023/10/21 12:43:35;;;;;;;11.00;1.45;;;15.80;99.90;;;;;;5030258;28;20042;-76
2023/10/21 12:46:18;;;;;;;5.22;0.80;;;15.80;99.90;;;;;;5028766;28;20019;-76
2023/10/21 12:48:51;;;;;;;5.97;1.00;;;16.00;99.90;;;;;;5030744;28;20241;-76
2023/10/21 12:51:19;;;;;;;4.68;0.82;;;16.00;99.90;;;;;;5029368;28;20033;-76
2023/10/21 12:53:45;;;;;;;5.28;0.73;;;16.00;99.90;;;;;;5029760;28;20014;-77
2023/10/21 12:56:10;;;;;;;5.50;0.75;;;16.10;99.90;;;;;;5030403;28;20098;-76
2023/10/21 12:58:36;;;;;;;5.75;0.90;;;16.00;99.90;;;;;;5029095;28;20022;-76
2023/10/21 13:01:04;;;;;;;6.18;1.15;;;16.20;99.90;;;;;;5030689;28;20347;-77
2023/10/21 13:03:32;;;;;;;3.15;0.60;;;16.30;99.90;;;;;;5027779;28;20038;-75
2023/10/21 13:05:58;;;;;;;6.20;1.55;;;16.50;99.90;;;;;;5030459;28;20041;-75
2023/10/21 13:08:24;;;;;;;10.35;1.58;;;16.50;99.90;;;;;;5030533;28;20082;-76
2023/10/21 13:10:54;;;;;;;8.05;1.27;;;16.80;99.90;;;;;;5029664;28;20018;-77
2023/10/21 13:13:21;;;;;;;3.28;0.52;;;17.90;99.90;;;;;;5012277;28;20101;-81
2023/10/21 13:15:47;;;;;;;7.00;0.80;;;19.60;99.90;;;;;;5006710;28;20038;-84
2023/10/21 13:18:12;;;;;;;3.60;0.90;;;20.90;99.90;;;;;;5005397;28;20055;-85
2023/10/21 13:20:39;;;;;;;12.25;1.95;;;22.40;98.80;;;;;;5001967;28;20033;-83
2023/10/21 13:23:08;;;;;;;3.50;0.93;;;23.60;93.40;;;;;;5001643;28;20053;-83
2023/10/21 13:25:33;;;;;;;2.55;0.85;;;24.20;90.00;;;;;;5006061;28;20520;-85
2023/10/21 13:28:05;;;;;;;4.07;1.05;;;24.00;84.80;;;;;;5003334;28;20030;-82
2023/10/21 13:30:34;;;;;;;4.68;0.90;;;23.00;86.70;;;;;;5007599;28;20425;-84
2023/10/21 13:32:59;;;;;;;3.28;1.13;;;22.60;88.10;;;;;;5005275;28;20034;-81